D57

Glen Ullin Regional Airport

Glen Ullin, North Dakota, USA
METAR KD57 231355Z AUTO 08010KT 3SM BR OVC004 04/03 A2996 RMK AO2 PWINO
Observed Flight Rules
Sep-23 @ 13:55 UTC (19 minutes ago) Instrument Flight Rules
Wind Visibility Clouds Conditions
80° at 10 knots 3 miles
Temperatures Readings
Current 4°C / 39°F
Dewpoint 3°C / 37°F
Humidity 93%
Altimeter 29.96" Hg
Pressure 1015 hPa
Elevation 637
METAR KD57 231355Z AUTO 08010KT 3SM BR OVC004 04/03 A2996 RMK AO2 PWINO
Observed Flight Rules
Sep-23 @ 13:55 UTC
(19 minutes ago)
LIFR
Wind Visibility
80° at 10 knots 3 miles
Clouds
Conditions
Temperature Dewpoint
4°C / 39°F 3°C / 37°F
Humidity Altimeter Pressure
93% 29.96" Hg 1015 hPa